Time;durP1;ratioP1;P1;durP2;ratioP2;P2;SDS_P1;SDS_P2;PMS_P1;PMS_P2;Temp;Humidity;BMP_temperature;BMP_pressure;BME280_temperature;BME280_humidity;BME280_pressure;Samples;Min_cycle;Max_cycle;Signal;HPM_P1;HPM_P2
2022/07/03 00:01:52;;;;;;;2.73;1.87;;;19.70;99.90;;;;;;5037478;28;20411;-81
2022/07/03 00:04:20;;;;;;;4.70;2.10;;;19.70;99.90;;;;;;5037597;28;20525;-81
2022/07/03 00:06:46;;;;;;;2.70;1.80;;;19.60;99.90;;;;;;5037237;28;20443;-81
2022/07/03 00:09:13;;;;;;;5.43;2.00;;;19.60;99.90;;;;;;5037064;28;20416;-81
2022/07/03 00:11:39;;;;;;;3.80;1.73;;;19.50;99.90;;;;;;5037717;28;20418;-81
2022/07/03 00:14:05;;;;;;;3.07;2.13;;;19.50;99.90;;;;;;5036921;28;20447;-81
2022/07/03 00:16:31;;;;;;;3.47;1.97;;;19.30;99.90;;;;;;5037077;28;20180;-81
2022/07/03 00:18:57;;;;;;;4.13;1.80;;;19.40;99.90;;;;;;5036635;28;20799;-81
2022/07/03 00:21:36;;;;;;;3.00;1.60;;;19.40;99.90;;;;;;5036580;28;20183;-81
2022/07/03 00:24:06;;;;;;;2.87;1.87;;;19.40;99.90;;;;;;5035993;28;20455;-81
2022/07/03 00:26:35;;;;;;;3.10;1.60;;;19.30;99.90;;;;;;5036399;28;20793;-81
2022/07/03 00:29:03;;;;;;;4.03;1.80;;;19.30;99.90;;;;;;5036108;28;20938;-81
2022/07/03 00:31:30;;;;;;;4.20;2.00;;;19.30;99.90;;;;;;5036025;28;20510;-81
2022/07/03 00:33:58;;;;;;;6.23;1.77;;;19.20;99.90;;;;;;5035993;28;20428;-81
2022/07/03 00:36:34;;;;;;;2.93;1.60;;;19.20;99.90;;;;;;5035795;28;20906;-81
2022/07/03 00:39:00;;;;;;;4.30;1.87;;;19.20;99.90;;;;;;5035572;28;20427;-80
2022/07/03 00:41:29;;;;;;;3.53;1.90;;;19.20;99.90;;;;;;5035467;28;20419;-79
2022/07/03 00:43:55;;;;;;;4.90;1.77;;;19.20;99.90;;;;;;5035222;28;20279;-81
2022/07/03 00:46:23;;;;;;;3.17;2.10;;;19.20;99.90;;;;;;5035194;28;20484;-81
2022/07/03 00:48:51;;;;;;;3.60;2.00;;;19.20;99.90;;;;;;5034678;28;20530;-80
2022/07/03 00:51:25;;;;;;;5.30;3.33;;;19.30;99.90;;;;;;5034636;28;20426;-81
2022/07/03 00:53:53;;;;;;;3.63;1.73;;;19.40;99.90;;;;;;5034446;28;20423;-80
2022/07/03 00:56:28;;;;;;;4.17;2.37;;;19.50;99.90;;;;;;5034105;28;20443;-80
2022/07/03 00:58:56;;;;;;;3.23;1.90;;;19.50;99.90;;;;;;5041872;22;20489;-85
2022/07/03 01:01:25;;;;;;;5.50;1.80;;;19.50;99.90;;;;;;5034345;28;20446;-85
2022/07/03 01:04:01;;;;;;;3.23;1.93;;;19.50;99.90;;;;;;5034281;28;20531;-85
2022/07/03 01:06:33;;;;;;;5.13;2.00;;;19.40;99.90;;;;;;5028366;28;20953;-85
2022/07/03 01:09:03;;;;;;;4.20;1.80;;;19.40;99.90;;;;;;5034160;28;20806;-85
2022/07/03 01:11:47;;;;;;;4.80;2.10;;;19.40;99.90;;;;;;5034124;28;20419;-85
2022/07/03 01:14:51;;;;;;;3.70;2.17;;;19.40;99.90;;;;;;5034505;28;20418;-85
2022/07/03 01:17:26;;;;;;;3.10;2.10;;;19.30;99.90;;;;;;5033865;28;20490;-85
2022/07/03 01:20:00;;;;;;;6.10;2.13;;;19.30;99.90;;;;;;5034317;28;20409;-85
2022/07/03 01:22:41;;;;;;;3.67;2.20;;;19.20;99.90;;;;;;5034037;28;20422;-84
2022/07/03 01:25:26;;;;;;;2.70;1.80;;;19.20;99.90;;;;;;5033972;28;20461;-85
2022/07/03 01:27:51;;;;;;;3.20;2.40;;;19.10;99.90;;;;;;5014045;28;20444;-85
2022/07/03 01:30:19;;;;;;;3.97;2.90;;;19.10;99.90;;;;;;5014592;28;20434;-85
2022/07/03 01:32:50;;;;;;;3.43;2.10;;;19.10;99.90;;;;;;5014182;28;20183;-85
2022/07/03 01:35:51;;;;;;;4.00;2.03;;;19.00;99.90;;;;;;5014484;28;20546;-85
2022/07/03 01:38:17;;;;;;;3.70;2.40;;;19.00;99.90;;;;;;5013665;28;20438;-85
2022/07/03 01:40:43;;;;;;;4.20;2.30;;;19.00;99.90;;;;;;5013975;28;20587;-85
2022/07/03 01:43:11;;;;;;;5.10;2.00;;;19.00;99.90;;;;;;5014054;28;20467;-85
2022/07/03 01:45:43;;;;;;;3.37;2.20;;;19.10;99.90;;;;;;5018211;28;20426;-85
2022/07/03 01:48:10;;;;;;;4.60;1.70;;;19.00;99.90;;;;;;5018013;28;20434;-85
2022/07/03 01:50:37;;;;;;;5.07;2.00;;;19.00;99.90;;;;;;5018321;28;20456;-85
2022/07/03 01:53:06;;;;;;;4.67;2.50;;;19.00;99.90;;;;;;5017994;28;20415;-85
2022/07/03 01:55:34;;;;;;;3.43;2.10;;;18.90;99.90;;;;;;5018201;28;20822;-85
2022/07/03 01:58:00;;;;;;;2.90;2.03;;;18.90;99.90;;;;;;5017545;28;20463;-85
2022/07/03 02:00:27;;;;;;;4.63;2.10;;;18.90;99.90;;;;;;5018321;28;20415;-85
2022/07/03 02:03:04;;;;;;;3.20;2.13;;;18.90;99.90;;;;;;5017941;28;20415;-85
2022/07/03 02:05:47;;;;;;;4.23;2.60;;;18.90;99.90;;;;;;5017825;28;20423;-85
2022/07/03 02:08:29;;;;;;;4.40;2.43;;;18.80;99.90;;;;;;5017604;28;20445;-85
2022/07/03 02:11:11;;;;;;;3.40;2.27;;;18.80;99.90;;;;;;5017862;28;20415;-85
2022/07/03 02:13:55;;;;;;;3.47;1.90;;;18.80;99.90;;;;;;5017582;28;20422;-85
2022/07/03 02:16:23;;;;;;;2.90;2.00;;;18.70;99.90;;;;;;5017506;28;20429;-85
2022/07/03 02:19:04;;;;;;;4.03;2.57;;;18.70;99.90;;;;;;5017280;28;20471;-85
2022/07/03 02:21:31;;;;;;;3.63;2.40;;;18.70;99.90;;;;;;5017522;28;20433;-85
2022/07/03 02:24:14;;;;;;;4.20;2.50;;;18.60;99.90;;;;;;5017237;28;20909;-85
2022/07/03 02:26:42;;;;;;;4.97;2.10;;;18.60;99.90;;;;;;5017323;28;20426;-85
2022/07/03 02:29:14;;;;;;;5.03;2.67;;;18.60;99.90;;;;;;5017318;28;20932;-85
2022/07/03 02:31:45;;;;;;;3.20;2.23;;;18.60;99.90;;;;;;5017312;28;20446;-85
2022/07/03 02:34:15;;;;;;;5.07;2.27;;;18.60;99.90;;;;;;5017356;28;20465;-84
2022/07/03 02:36:49;;;;;;;3.87;2.67;;;18.60;99.90;;;;;;5017112;28;20920;-85
2022/07/03 02:39:25;;;;;;;3.50;2.03;;;18.50;99.90;;;;;;5017015;28;20415;-84
2022/07/03 02:41:58;;;;;;;4.00;2.47;;;18.50;99.90;;;;;;5017367;28;20426;-85
2022/07/03 02:44:38;;;;;;;3.10;2.20;;;18.40;99.90;;;;;;5017055;28;20462;-85
2022/07/03 02:47:23;;;;;;;3.70;2.30;;;18.40;99.90;;;;;;5016880;28;20461;-85
2022/07/03 02:50:08;;;;;;;3.60;2.00;;;18.40;99.90;;;;;;5028995;28;20462;-85
2022/07/03 02:52:34;;;;;;;5.33;2.40;;;18.30;99.90;;;;;;5036413;28;20421;-85
2022/07/03 02:55:08;;;;;;;4.23;2.10;;;18.20;99.90;;;;;;5035813;28;20414;-85
2022/07/03 02:57:39;;;;;;;4.63;2.70;;;18.10;99.90;;;;;;5036380;28;20230;-85
2022/07/03 03:00:11;;;;;;;5.33;2.03;;;18.10;99.90;;;;;;5036971;28;20472;-85
2022/07/03 03:02:56;;;;;;;12.07;2.57;;;18.10;99.90;;;;;;5036792;28;20426;-85
2022/07/03 03:05:46;;;;;;;3.57;2.27;;;18.10;99.90;;;;;;5036695;28;20525;-85
2022/07/03 03:08:29;;;;;;;3.53;2.00;;;18.00;99.90;;;;;;5035973;28;20443;-84
2022/07/03 03:11:08;;;;;;;2.70;1.80;;;18.00;99.90;;;;;;5036852;28;20413;-85
2022/07/03 03:13:35;;;;;;;5.30;2.60;;;18.10;99.90;;;;;;5036598;28;20476;-84
2022/07/03 03:16:06;;;;;;;4.20;2.93;;;18.00;99.90;;;;;;5036184;28;20798;-85
2022/07/03 03:18:38;;;;;;;2.87;1.83;;;18.00;99.90;;;;;;5036479;28;20988;-85
2022/07/03 03:21:08;;;;;;;4.10;2.80;;;18.00;99.90;;;;;;5036197;28;20520;-85
2022/07/03 03:23:48;;;;;;;4.17;1.97;;;18.10;99.90;;;;;;5036393;28;20472;-85
2022/07/03 03:26:18;;;;;;;3.20;2.33;;;17.90;99.90;;;;;;5035926;28;20407;-85
2022/07/03 03:28:44;;;;;;;3.20;2.40;;;18.00;99.90;;;;;;5036211;28;20434;-84
2022/07/03 03:31:09;;;;;;;4.87;2.30;;;18.00;99.90;;;;;;5035942;28;20441;-85
2022/07/03 03:33:46;;;;;;;3.00;2.17;;;18.00;99.90;;;;;;5035911;28;20179;-84
2022/07/03 03:36:15;;;;;;;3.27;2.30;;;17.80;99.90;;;;;;5035561;28;20979;-85
2022/07/03 03:38:41;;;;;;;3.43;2.00;;;17.70;99.90;;;;;;5035828;28;20457;-85
2022/07/03 03:41:08;;;;;;;3.83;2.40;;;17.70;99.90;;;;;;5035932;28;20426;-85
2022/07/03 03:43:34;;;;;;;4.83;2.40;;;17.80;99.90;;;;;;5035582;28;20486;-85
2022/07/03 03:46:00;;;;;;;4.17;2.10;;;17.70;99.90;;;;;;5035780;28;20920;-84
2022/07/03 03:48:27;;;;;;;2.80;1.97;;;17.80;99.90;;;;;;5034922;28;20438;-85
2022/07/03 03:50:53;;;;;;;4.00;2.13;;;17.80;99.90;;;;;;5035205;28;20419;-85
2022/07/03 03:53:19;;;;;;;3.80;2.63;;;17.80;99.90;;;;;;5035544;28;20837;-85
2022/07/03 03:55:58;;;;;;;4.80;2.30;;;17.80;99.90;;;;;;5035465;28;20418;-84
2022/07/03 03:58:24;;;;;;;4.50;2.97;;;17.80;99.90;;;;;;5035171;28;20465;-84
2022/07/03 04:00:50;;;;;;;2.80;2.00;;;17.80;99.90;;;;;;5035498;28;20430;-85
2022/07/03 04:03:15;;;;;;;8.73;2.60;;;17.80;99.90;;;;;;5035151;28;20208;-85
2022/07/03 04:05:41;;;;;;;2.93;2.00;;;17.80;99.90;;;;;;5035319;28;20219;-85
2022/07/03 04:08:07;;;;;;;4.63;2.10;;;17.90;99.90;;;;;;5034731;28;20199;-85
2022/07/03 04:10:32;;;;;;;6.07;2.40;;;17.90;99.90;;;;;;5035286;28;20297;-85
2022/07/03 04:12:58;;;;;;;3.07;2.17;;;18.00;99.90;;;;;;5035105;28;20275;-85
2022/07/03 04:15:24;;;;;;;4.80;2.30;;;18.00;99.90;;;;;;5035146;28;20210;-84
2022/07/03 04:17:52;;;;;;;3.23;2.03;;;18.00;99.90;;;;;;5034848;28;20230;-84
2022/07/03 04:20:18;;;;;;;5.90;2.00;;;18.00;99.90;;;;;;5034997;28;20186;-84
2022/07/03 04:22:44;;;;;;;3.13;2.30;;;18.10;99.90;;;;;;5035084;28;20426;-85
2022/07/03 04:25:10;;;;;;;3.00;1.93;;;18.10;99.90;;;;;;5034938;28;20211;-84
2022/07/03 04:27:35;;;;;;;3.30;2.27;;;18.20;99.90;;;;;;5034762;28;20238;-85
2022/07/03 04:30:01;;;;;;;4.03;2.60;;;18.20;99.90;;;;;;5034583;28;20183;-85
2022/07/03 04:32:27;;;;;;;5.23;2.40;;;18.20;99.90;;;;;;5034875;28;20184;-85
2022/07/03 04:34:53;;;;;;;4.33;2.30;;;18.20;99.90;;;;;;5034805;28;20233;-85
2022/07/03 04:37:18;;;;;;;5.43;2.43;;;18.30;99.90;;;;;;5034354;28;20207;-85
2022/07/03 04:39:44;;;;;;;3.90;2.10;;;18.40;99.90;;;;;;5034789;28;20187;-85
2022/07/03 04:42:10;;;;;;;3.73;2.57;;;18.40;99.90;;;;;;5034923;28;20233;-85
2022/07/03 04:44:35;;;;;;;7.40;2.70;;;18.50;99.90;;;;;;5034984;28;20573;-85
2022/07/03 04:47:01;;;;;;;4.07;2.50;;;18.40;99.90;;;;;;5052291;28;20195;-85
2022/07/03 04:49:27;;;;;;;4.33;2.60;;;18.20;99.90;;;;;;5034536;28;20190;-85
2022/07/03 04:51:53;;;;;;;4.07;2.43;;;18.20;99.90;;;;;;5034729;28;20190;-85
2022/07/03 04:54:19;;;;;;;2.93;2.27;;;18.20;99.90;;;;;;5034636;28;20190;-85
2022/07/03 04:56:44;;;;;;;3.53;2.47;;;18.20;99.90;;;;;;5033940;28;20426;-85
2022/07/03 04:59:10;;;;;;;4.20;2.40;;;18.30;99.90;;;;;;5034337;28;20199;-85
2022/07/03 05:01:36;;;;;;;4.80;2.63;;;18.40;99.90;;;;;;5034097;28;20234;-85
2022/07/03 05:04:01;;;;;;;4.20;2.10;;;18.40;99.90;;;;;;5033911;28;20605;-85
2022/07/03 05:06:27;;;;;;;3.47;2.07;;;18.60;99.90;;;;;;5033920;28;20184;-85
2022/07/03 05:08:53;;;;;;;4.47;3.43;;;18.60;99.90;;;;;;5034227;28;20206;-85
2022/07/03 05:11:18;;;;;;;8.17;2.10;;;18.70;99.90;;;;;;5034477;28;20249;-85
2022/07/03 05:13:44;;;;;;;3.90;2.10;;;18.80;99.90;;;;;;5034196;28;20188;-85
2022/07/03 05:16:10;;;;;;;6.60;2.50;;;18.80;99.90;;;;;;5033964;28;20184;-85
2022/07/03 05:18:35;;;;;;;3.73;2.23;;;19.00;99.90;;;;;;5033318;28;20211;-85
2022/07/03 05:21:02;;;;;;;6.00;2.80;;;19.00;99.90;;;;;;5034062;28;20184;-85
2022/07/03 05:23:28;;;;;;;4.30;2.70;;;19.10;99.90;;;;;;5033983;28;20210;-85
2022/07/03 05:25:55;;;;;;;4.27;2.43;;;19.20;99.90;;;;;;5033846;28;20418;-85
2022/07/03 05:28:21;;;;;;;7.43;2.60;;;19.30;99.90;;;;;;5032765;28;20199;-85
2022/07/03 05:30:46;;;;;;;5.83;2.53;;;19.30;99.90;;;;;;5034076;28;21000;-85
2022/07/03 05:33:12;;;;;;;4.10;2.60;;;19.40;99.90;;;;;;5033939;28;20198;-85
2022/07/03 05:35:38;;;;;;;4.80;2.60;;;19.50;99.90;;;;;;5033919;28;20190;-85
2022/07/03 05:38:03;;;;;;;4.83;2.37;;;19.60;99.90;;;;;;5033729;28;20237;-85
2022/07/03 05:40:29;;;;;;;7.10;3.00;;;19.70;99.90;;;;;;5033969;28;20211;-85
2022/07/03 05:42:55;;;;;;;5.90;3.03;;;19.70;99.90;;;;;;5033649;28;20206;-85
2022/07/03 05:45:21;;;;;;;8.40;2.77;;;19.80;99.90;;;;;;5033659;28;20223;-85
2022/07/03 05:47:46;;;;;;;4.90;3.20;;;19.90;99.90;;;;;;5033544;28;20227;-85
2022/07/03 05:50:12;;;;;;;5.83;4.00;;;19.80;99.90;;;;;;5033816;28;20549;-85
2022/07/03 05:52:38;;;;;;;5.10;2.60;;;19.90;99.90;;;;;;5033799;28;20218;-86
2022/07/03 05:55:04;;;;;;;5.30;2.80;;;20.00;99.90;;;;;;5034095;28;20183;-85
2022/07/03 05:57:30;;;;;;;6.10;3.70;;;20.00;99.90;;;;;;5033282;28;20261;-85
2022/07/03 05:59:55;;;;;;;4.70;3.37;;;20.10;99.90;;;;;;5034095;28;20430;-85
2022/07/03 06:02:21;;;;;;;4.40;3.00;;;20.20;99.90;;;;;;5033858;28;20190;-88
2022/07/03 06:04:47;;;;;;;8.17;3.40;;;20.30;99.90;;;;;;5033985;28;20588;-86
2022/07/03 06:07:12;;;;;;;5.53;2.87;;;20.30;99.90;;;;;;5033291;28;20199;-85
2022/07/03 06:09:38;;;;;;;5.50;3.27;;;20.40;99.90;;;;;;5033484;28;20191;-85
2022/07/03 06:12:04;;;;;;;4.33;3.00;;;20.50;99.90;;;;;;5033495;28;20189;-85
2022/07/03 06:14:30;;;;;;;6.30;3.00;;;20.50;99.90;;;;;;5033463;28;20222;-85
2022/07/03 06:16:56;;;;;;;5.77;3.50;;;20.50;99.90;;;;;;5033347;28;20422;-85
2022/07/03 06:19:21;;;;;;;5.60;4.27;;;20.60;99.90;;;;;;5032905;28;20180;-85
2022/07/03 06:21:47;;;;;;;4.20;3.50;;;20.60;99.90;;;;;;5033400;28;20180;-85
2022/07/03 06:24:13;;;;;;;4.03;3.63;;;20.60;99.90;;;;;;5033506;28;20239;-85
2022/07/03 06:26:38;;;;;;;6.03;3.90;;;20.60;99.90;;;;;;5033212;28;20275;-85
2022/07/03 06:29:04;;;;;;;5.00;3.77;;;20.60;99.90;;;;;;5033576;28;20641;-85
2022/07/03 06:31:31;;;;;;;5.40;3.50;;;20.60;99.90;;;;;;5037200;28;20187;-85
2022/07/03 06:33:57;;;;;;;4.60;3.60;;;20.60;99.90;;;;;;5037184;28;20184;-85
2022/07/03 06:36:23;;;;;;;5.90;3.83;;;20.60;99.90;;;;;;5036829;28;20421;-85
2022/07/03 06:38:48;;;;;;;5.30;3.43;;;20.60;99.90;;;;;;5037296;28;20660;-85
2022/07/03 06:41:14;;;;;;;5.23;3.23;;;20.70;99.90;;;;;;5037117;28;20426;-85
2022/07/03 06:43:40;;;;;;;4.80;3.67;;;20.80;99.90;;;;;;5055129;28;20709;-86
2022/07/03 06:46:05;;;;;;;9.57;3.90;;;20.90;99.90;;;;;;5036930;28;20186;-86
2022/07/03 06:48:31;;;;;;;6.53;4.00;;;21.00;99.90;;;;;;5036782;28;20583;-86
2022/07/03 06:50:57;;;;;;;4.73;3.70;;;21.10;99.90;;;;;;5036758;28;20180;-85
2022/07/03 06:53:22;;;;;;;4.83;3.50;;;21.10;99.90;;;;;;5036943;28;20179;-85
2022/07/03 06:55:48;;;;;;;6.20;3.73;;;21.20;99.90;;;;;;5036395;28;20256;-85
2022/07/03 06:58:14;;;;;;;5.67;3.80;;;21.30;99.90;;;;;;5036589;28;20250;-86
2022/07/03 07:00:40;;;;;;;5.47;3.90;;;21.30;99.90;;;;;;5059863;22;20227;-76
2022/07/03 07:03:05;;;;;;;5.40;4.50;;;21.30;99.90;;;;;;5054416;28;20514;-76
2022/07/03 07:05:31;;;;;;;6.83;3.50;;;21.40;99.90;;;;;;5054660;28;20258;-76
2022/07/03 07:07:57;;;;;;;5.63;3.00;;;21.50;99.90;;;;;;5054282;28;20171;-76
2022/07/03 07:10:22;;;;;;;5.17;3.73;;;21.50;99.90;;;;;;5054397;28;20210;-76
2022/07/03 07:12:49;;;;;;;6.63;3.40;;;21.70;99.90;;;;;;5054452;28;20176;-76
2022/07/03 07:15:14;;;;;;;4.10;3.70;;;21.70;99.90;;;;;;5054915;28;20207;-78
2022/07/03 07:17:40;;;;;;;5.20;3.10;;;21.80;99.90;;;;;;5056118;28;20422;-78
2022/07/03 07:20:06;;;;;;;4.80;3.37;;;21.90;99.90;;;;;;5056968;28;20195;-78
2022/07/03 07:22:32;;;;;;;5.30;3.40;;;22.00;99.90;;;;;;5056774;28;20190;-77
2022/07/03 07:24:57;;;;;;;4.80;3.23;;;22.00;99.90;;;;;;5057244;28;20457;-77
2022/07/03 07:27:23;;;;;;;5.10;3.37;;;21.90;99.90;;;;;;5055890;28;20179;-78
2022/07/03 07:29:48;;;;;;;11.83;3.70;;;22.00;99.90;;;;;;5056070;28;20220;-78
2022/07/03 07:32:14;;;;;;;5.70;3.70;;;22.00;99.90;;;;;;5054896;28;20175;-78
2022/07/03 07:34:40;;;;;;;3.80;2.93;;;22.10;99.90;;;;;;5055983;28;20643;-78
2022/07/03 07:37:06;;;;;;;4.97;3.50;;;22.20;99.90;;;;;;5056044;28;20226;-78
2022/07/03 07:39:31;;;;;;;5.43;4.00;;;22.20;99.90;;;;;;5056354;28;20329;-78
2022/07/03 07:41:57;;;;;;;4.07;3.57;;;22.30;99.90;;;;;;5054836;28;20454;-77
2022/07/03 07:44:22;;;;;;;4.90;3.50;;;22.30;99.90;;;;;;5053986;28;20214;-77
2022/07/03 07:46:49;;;;;;;6.10;3.73;;;22.40;99.90;;;;;;5069195;28;20176;-78
2022/07/03 07:49:15;;;;;;;8.50;4.10;;;22.40;99.90;;;;;;5053926;28;20176;-77
2022/07/03 07:51:40;;;;;;;4.83;3.47;;;22.50;99.90;;;;;;5069327;28;20474;-77
2022/07/03 07:54:06;;;;;;;5.07;3.50;;;22.60;99.90;;;;;;5053673;28;20195;-78
2022/07/03 07:56:31;;;;;;;9.50;3.57;;;22.70;99.90;;;;;;5068791;28;20240;-78
2022/07/03 07:58:57;;;;;;;3.80;2.90;;;22.70;99.90;;;;;;5053757;28;20627;-77
2022/07/03 08:06:51;;;;;;;4.67;2.77;;;23.10;99.90;;;;;;5053199;28;20418;-78
2022/07/03 08:09:16;;;;;;;5.90;2.90;;;23.20;99.90;;;;;;5053692;28;20905;-77
2022/07/03 08:11:42;;;;;;;4.60;2.97;;;23.40;99.90;;;;;;5053565;28;20254;-78
2022/07/03 08:14:10;;;;;;;3.87;2.57;;;23.60;99.90;;;;;;5053600;28;20182;-77
2022/07/03 08:16:38;;;;;;;4.50;2.90;;;24.30;99.90;;;;;;5053032;28;20883;-77
2022/07/03 08:19:03;;;;;;;8.97;3.13;;;25.50;99.90;;;;;;5053155;28;20448;-78
2022/07/03 08:21:29;;;;;;;4.83;3.27;;;26.50;99.90;;;;;;5053383;28;20499;-78
2022/07/03 08:23:55;;;;;;;5.63;2.70;;;27.40;99.90;;;;;;5053468;28;20692;-77
2022/07/03 08:26:20;;;;;;;4.70;2.20;;;28.30;99.90;;;;;;5053016;28;20172;-79
2022/07/03 08:28:46;;;;;;;4.33;2.30;;;28.80;99.90;;;;;;5053504;28;20275;-78
2022/07/03 08:31:11;;;;;;;3.53;2.37;;;29.50;99.90;;;;;;5068670;28;20204;-78
2022/07/03 08:33:37;;;;;;;5.13;3.03;;;30.40;98.60;;;;;;5053397;28;20230;-78
2022/07/03 08:36:04;;;;;;;6.00;2.00;;;30.50;92.80;;;;;;5053154;28;20255;-79
2022/07/03 08:38:33;;;;;;;6.67;2.37;;;31.20;92.20;;;;;;5052770;28;20199;-78
2022/07/03 08:41:00;;;;;;;6.93;2.40;;;31.80;90.00;;;;;;5047617;28;20513;-78
2022/07/03 08:43:25;;;;;;;3.90;1.90;;;32.40;83.30;;;;;;5052722;28;21007;-79
2022/07/03 08:45:56;;;;;;;5.13;3.30;;;32.30;78.40;;;;;;5052420;28;20406;-78
2022/07/03 08:48:22;;;;;;;2.83;1.73;;;33.00;72.50;;;;;;5050202;28;20183;-78
2022/07/03 08:50:50;;;;;;;4.00;1.70;;;33.70;67.00;;;;;;5051704;28;20499;-81
2022/07/03 08:53:17;;;;;;;4.30;1.80;;;34.10;65.60;;;;;;5052356;28;20498;-80
2022/07/03 08:55:42;;;;;;;6.00;1.80;;;34.30;61.00;;;;;;5051366;28;20457;-80
2022/07/03 08:58:12;;;;;;;4.50;1.90;;;34.30;59.20;;;;;;5051597;28;20431;-80
2022/07/03 09:00:38;;;;;;;2.90;1.70;;;34.70;59.50;;;;;;5051852;28;20234;-79
2022/07/03 09:03:09;;;;;;;3.13;1.60;;;35.00;56.60;;;;;;5052166;28;20425;-79
2022/07/03 09:05:35;;;;;;;4.43;2.03;;;35.00;56.10;;;;;;5051325;28;20841;-77
2022/07/03 09:08:02;;;;;;;3.00;1.30;;;35.70;55.70;;;;;;5051703;28;20398;-78
2022/07/03 09:10:28;;;;;;;5.83;2.00;;;36.30;54.30;;;;;;5051648;28;20425;-78
2022/07/03 09:12:55;;;;;;;3.20;1.83;;;36.20;51.70;;;;;;5052089;28;20402;-78
2022/07/03 09:15:22;;;;;;;2.40;1.40;;;36.70;51.30;;;;;;5051372;28;20464;-78
2022/07/03 09:18:02;;;;;;;3.10;1.80;;;36.80;51.00;;;;;;5051444;28;20398;-78
2022/07/03 09:20:37;;;;;;;2.87;1.70;;;36.80;49.70;;;;;;5048725;28;20967;-79
2022/07/03 09:23:20;;;;;;;2.60;1.57;;;37.00;49.20;;;;;;5046243;28;20953;-79
2022/07/03 09:26:01;;;;;;;3.40;1.53;;;37.60;48.50;;;;;;5051091;28;20496;-78
2022/07/03 09:28:44;;;;;;;4.17;1.97;;;37.50;48.70;;;;;;5050156;28;20406;-78
2022/07/03 09:31:12;;;;;;;3.80;1.90;;;38.00;47.20;;;;;;5050850;28;20518;-78
2022/07/03 09:33:51;;;;;;;3.80;1.83;;;38.20;46.20;;;;;;5051338;28;20411;-78
2022/07/03 09:36:17;;;;;;;2.90;2.03;;;39.00;46.50;;;;;;5050893;28;20994;-79
2022/07/03 09:38:45;;;;;;;3.97;1.60;;;38.70;44.10;;;;;;5051349;28;20449;-78
2022/07/03 09:41:11;;;;;;;5.00;2.10;;;38.90;43.10;;;;;;5051485;28;20437;-78
2022/07/03 09:43:42;;;;;;;3.43;2.57;;;38.70;44.60;;;;;;5051732;28;20465;-78
2022/07/03 09:46:08;;;;;;;2.93;2.00;;;39.30;44.30;;;;;;5051370;28;20163;-79
2022/07/03 09:48:43;;;;;;;4.00;1.80;;;39.70;41.80;;;;;;5049735;28;20430;-79
2022/07/03 09:51:12;;;;;;;2.40;1.53;;;39.70;41.80;;;;;;5051273;28;20438;-79
2022/07/03 09:53:57;;;;;;;3.07;2.07;;;40.20;42.60;;;;;;5051851;28;20409;-79
2022/07/03 09:56:27;;;;;;;2.93;1.90;;;40.90;41.00;;;;;;5051019;28;20920;-79
2022/07/03 09:59:01;;;;;;;4.20;2.30;;;41.20;39.20;;;;;;5051037;28;20496;-79
2022/07/03 10:01:26;;;;;;;4.00;2.07;;;41.20;39.20;;;;;;5051048;28;20457;-79
2022/07/03 10:03:53;;;;;;;2.93;2.03;;;41.50;39.00;;;;;;5051425;28;20500;-79
2022/07/03 10:06:19;;;;;;;6.03;2.43;;;41.70;39.30;;;;;;5054770;28;20175;-79
2022/07/03 10:08:46;;;;;;;3.50;2.57;;;42.30;37.90;;;;;;5055423;28;20412;-78
2022/07/03 10:11:11;;;;;;;2.80;1.87;;;41.80;37.90;;;;;;5047264;28;20249;-78
2022/07/03 10:13:39;;;;;;;3.60;2.83;;;41.80;38.20;;;;;;5054875;28;20935;-79
2022/07/03 10:16:06;;;;;;;3.90;2.33;;;42.00;38.30;;;;;;5054726;28;20568;-78
2022/07/03 10:18:38;;;;;;;4.00;2.00;;;41.90;38.20;;;;;;5055142;28;20501;-78
2022/07/03 10:21:06;;;;;;;2.70;1.60;;;42.50;37.50;;;;;;5056400;28;20533;-79
2022/07/03 10:23:32;;;;;;;3.60;2.10;;;42.70;37.60;;;;;;5056782;28;20468;-79
2022/07/03 10:25:58;;;;;;;4.37;2.37;;;42.20;36.60;;;;;;5054802;28;20417;-79
2022/07/03 10:28:24;;;;;;;4.70;2.33;;;42.20;36.90;;;;;;5055407;28;20233;-80
2022/07/03 10:30:50;;;;;;;3.40;2.23;;;42.40;38.00;;;;;;5052478;28;20985;-80
2022/07/03 10:33:16;;;;;;;3.03;1.93;;;42.90;37.60;;;;;;5055695;28;20179;-79
2022/07/03 10:35:50;;;;;;;3.43;1.83;;;43.20;37.80;;;;;;5054969;28;20634;-79
2022/07/03 10:38:43;;;;;;;3.73;2.10;;;42.90;35.20;;;;;;5052615;28;20185;-78
2022/07/03 10:47:40;;;;;;;3.20;1.70;;;39.60;38.40;;;;;;5044907;28;20436;-78
2022/07/03 10:50:19;;;;;;;4.60;2.63;;;38.90;38.50;;;;;;5055736;28;20436;-77
2022/07/03 10:52:45;;;;;;;3.20;1.80;;;37.70;38.20;;;;;;5048439;28;20457;-77
2022/07/03 10:55:13;;;;;;;3.53;1.57;;;36.40;41.40;;;;;;5055402;28;20414;-78
2022/07/03 10:57:40;;;;;;;2.30;1.50;;;35.50;42.80;;;;;;5055930;28;20410;-78
2022/07/03 11:00:08;;;;;;;2.90;1.73;;;35.10;42.30;;;;;;5054885;28;20533;-77
2022/07/03 11:02:48;;;;;;;3.87;2.03;;;34.80;42.90;;;;;;5053113;28;20437;-77
2022/07/03 11:05:19;;;;;;;2.70;1.70;;;34.80;43.30;;;;;;5037264;28;21038;-79
2022/07/03 11:07:51;;;;;;;2.37;1.47;;;34.50;43.20;;;;;;5044171;28;20436;-77
2022/07/03 11:10:16;;;;;;;3.00;1.80;;;34.60;44.00;;;;;;5039112;28;20979;-77
2022/07/03 11:12:56;;;;;;;3.30;1.97;;;34.00;44.70;;;;;;5054757;28;20446;-77
2022/07/03 11:15:42;;;;;;;4.10;1.87;;;33.30;44.00;;;;;;5052058;28;20184;-77
2022/07/03 11:18:14;;;;;;;4.50;1.70;;;32.70;44.90;;;;;;5049846;28;20813;-78
2022/07/03 11:20:42;;;;;;;4.17;1.87;;;32.60;46.60;;;;;;5054434;28;20430;-77
2022/07/03 11:23:17;;;;;;;6.87;2.30;;;32.00;45.90;;;;;;5054121;28;20412;-78
2022/07/03 11:25:44;;;;;;;3.13;1.50;;;31.40;46.50;;;;;;5053805;28;20509;-77
2022/07/03 11:28:31;;;;;;;3.67;1.40;;;31.10;47.40;;;;;;5053757;28;20852;-77
2022/07/03 11:31:13;;;;;;;3.27;1.70;;;30.90;48.70;;;;;;5053879;28;20435;-78
2022/07/03 11:33:54;;;;;;;3.10;1.70;;;30.50;49.20;;;;;;5054184;28;20410;-78
2022/07/03 11:36:33;;;;;;;3.00;1.50;;;30.40;50.40;;;;;;5053557;28;20548;-77
2022/07/03 11:38:59;;;;;;;2.97;1.67;;;30.20;49.00;;;;;;5054060;28;20521;-77
2022/07/03 11:41:25;;;;;;;3.73;1.80;;;30.00;49.90;;;;;;5053818;28;20516;-77
2022/07/03 11:44:03;;;;;;;3.73;1.80;;;30.10;51.70;;;;;;5053541;28;20229;-77
2022/07/03 11:46:31;;;;;;;3.93;1.80;;;29.70;51.30;;;;;;5051156;28;20425;-78
2022/07/03 11:49:11;;;;;;;3.20;1.70;;;29.50;51.80;;;;;;5053358;28;20413;-78
2022/07/03 11:51:38;;;;;;;2.40;1.40;;;29.30;51.50;;;;;;5053507;28;20418;-78
2022/07/03 11:54:04;;;;;;;5.67;1.80;;;29.10;51.00;;;;;;5053486;28;20411;-77
2022/07/03 11:56:31;;;;;;;2.90;1.63;;;29.10;51.70;;;;;;5053010;28;20403;-77
2022/07/03 11:58:59;;;;;;;3.07;1.60;;;29.30;52.90;;;;;;5052979;28;20402;-77
2022/07/03 12:01:28;;;;;;;2.87;1.40;;;29.50;51.60;;;;;;5052875;28;20442;-77
2022/07/03 12:04:01;;;;;;;2.67;1.70;;;29.30;50.50;;;;;;5052636;28;20454;-77
2022/07/03 12:06:38;;;;;;;3.03;1.50;;;29.30;50.50;;;;;;5053105;28;20417;-78
2022/07/03 12:09:19;;;;;;;2.93;1.47;;;29.20;52.80;;;;;;5053131;28;20405;-81
2022/07/03 12:12:02;;;;;;;3.90;1.83;;;29.30;53.20;;;;;;5052777;28;20439;-80
2022/07/03 12:14:48;;;;;;;3.53;1.77;;;29.20;53.60;;;;;;5053068;28;20478;-81
2022/07/03 12:17:25;;;;;;;2.60;1.70;;;29.10;52.40;;;;;;5054454;28;20453;-83
2022/07/03 12:20:00;;;;;;;3.43;1.60;;;28.90;54.20;;;;;;5053544;28;20481;-82
2022/07/03 12:22:26;;;;;;;3.50;1.60;;;28.90;52.60;;;;;;5055134;28;20421;-82
2022/07/03 12:25:03;;;;;;;2.47;1.40;;;28.90;52.60;;;;;;5059638;28;20553;-82
2022/07/03 12:27:30;;;;;;;3.37;1.50;;;28.80;53.10;;;;;;5057158;28;20953;-83
2022/07/03 12:29:56;;;;;;;4.07;1.90;;;28.70;53.80;;;;;;5058509;28;20426;-80
2022/07/03 12:32:23;;;;;;;4.30;1.60;;;28.70;53.00;;;;;;5058191;28;20413;-82
2022/07/03 12:34:48;;;;;;;2.50;1.47;;;28.90;53.20;;;;;;5058531;28;20410;-81
2022/07/03 12:37:14;;;;;;;2.43;1.57;;;28.90;54.20;;;;;;5057794;28;20467;-81
2022/07/03 12:39:41;;;;;;;2.70;1.40;;;28.90;52.50;;;;;;5056982;28;20790;-80
2022/07/03 12:42:21;;;;;;;3.97;1.40;;;29.20;53.30;;;;;;5054936;28;20425;-82
2022/07/03 12:45:01;;;;;;;4.67;2.27;;;29.60;51.60;;;;;;5054478;28;20468;-82
2022/07/03 12:47:28;;;;;;;3.50;1.53;;;29.60;51.80;;;;;;5053970;28;20769;-82
2022/07/03 12:50:00;;;;;;;2.70;1.50;;;29.40;52.00;;;;;;5053846;28;20430;-82
2022/07/03 12:52:27;;;;;;;2.90;1.40;;;29.10;51.60;;;;;;5053759;28;20957;-82
2022/07/03 12:54:54;;;;;;;3.63;1.60;;;29.10;51.80;;;;;;5053980;28;20410;-82
2022/07/03 13:00:20;;;;;;;4.00;1.40;;;28.90;52.60;;;;;;5054407;28;20912;-82
2022/07/03 13:02:49;;;;;;;3.90;1.50;;;28.80;53.40;;;;;;5052649;28;20475;-82
2022/07/03 13:05:23;;;;;;;2.60;1.40;;;29.10;53.80;;;;;;5052365;28;20465;-83
2022/07/03 13:07:54;;;;;;;2.83;1.33;;;29.10;53.20;;;;;;5053107;28;20801;-82
2022/07/03 13:10:22;;;;;;;2.40;1.37;;;29.10;52.90;;;;;;5053218;28;20450;-82
2022/07/03 13:12:54;;;;;;;2.67;1.27;;;29.10;54.40;;;;;;5053487;28;20410;-82
2022/07/03 13:15:23;;;;;;;2.23;1.30;;;29.20;53.20;;;;;;5053819;28;20410;-82